createdAt,value
2022-09-25T00:00:55.084Z,14.13
2022-09-25T00:03:29.563Z,10.48
2022-09-25T00:06:03.393Z,9.82
2022-09-25T00:08:44.821Z,12.50
2022-09-25T00:11:19.429Z,11.05
2022-09-25T00:13:53.384Z,3.05
2022-09-25T00:16:22.724Z,2.25
2022-09-25T00:19:15.380Z,2.35
2022-09-25T00:21:43.131Z,3.50
2022-09-25T00:24:17.516Z,3.22
2022-09-25T00:26:44.783Z,4.25
2022-09-25T00:29:16.699Z,5.50
2022-09-25T00:31:50.381Z,5.55
2022-09-25T00:34:17.673Z,4.22
2022-09-25T00:36:51.575Z,4.07
2022-09-25T00:39:18.889Z,5.25
2022-09-25T00:41:45.988Z,9.05
2022-09-25T00:44:38.401Z,8.68
2022-09-25T00:47:05.616Z,6.82
2022-09-25T00:49:39.468Z,4.50
2022-09-25T00:52:07.977Z,4.35
2022-09-25T00:54:47.373Z,4.07
2022-09-25T00:57:16.873Z,4.30
2022-09-25T00:59:53.404Z,4.05
2022-09-25T01:02:24.892Z,4.80
2022-09-25T01:04:59.428Z,4.07
2022-09-25T01:07:26.982Z,4.72
2022-09-25T01:10:09.863Z,5.38
2022-09-25T01:12:39.221Z,3.80
2022-09-25T01:15:07.358Z,4.25
2022-09-25T01:18:04.388Z,4.75
2022-09-25T01:20:50.283Z,4.82
2022-09-25T01:23:28.421Z,5.20
2022-09-25T01:25:56.440Z,6.28
2022-09-25T01:28:36.596Z,6.13
2022-09-25T01:31:05.461Z,5.68
2022-09-25T01:33:36.251Z,6.32
2022-09-25T01:36:15.412Z,5.50
2022-09-25T01:38:45.685Z,6.85
2022-09-25T01:41:29.433Z,6.85
2022-09-25T01:43:56.591Z,6.88
2022-09-25T01:46:33.405Z,5.28
2022-09-25T01:49:03.216Z,6.57
2022-09-25T01:51:43.417Z,6.38
2022-09-25T01:54:12.706Z,11.52
2022-09-25T01:56:50.404Z,7.78
2022-09-25T01:59:23.839Z,9.07
2022-09-25T02:01:59.856Z,8.13
2022-09-25T02:04:32.944Z,8.63
2022-09-25T02:07:08.636Z,7.50
2022-09-25T02:09:44.382Z,6.93
2022-09-25T02:12:29.424Z,9.27
2022-09-25T02:15:01.588Z,16.85
2022-09-25T02:18:00.414Z,17.02
2022-09-25T02:20:32.516Z,18.05
2022-09-25T02:23:12.488Z,9.45
2022-09-25T02:25:45.507Z,15.18
2022-09-25T02:28:19.565Z,11.13
2022-09-25T02:30:48.594Z,24.10
2022-09-25T02:33:22.682Z,22.98
2022-09-25T02:35:50.082Z,20.15
2022-09-25T02:38:17.357Z,23.45
2022-09-25T02:40:53.484Z,23.17
2022-09-25T02:43:26.728Z,11.13
2022-09-25T02:46:09.487Z,7.50
2022-09-25T02:48:56.965Z,6.30
2022-09-25T02:51:36.401Z,6.63
2022-09-25T02:54:10.098Z,7.38
2022-09-25T02:56:52.407Z,7.05
2022-09-25T02:59:22.081Z,7.78
2022-09-25T03:01:56.564Z,16.50
2022-09-25T03:04:24.485Z,17.63
2022-09-25T03:06:58.581Z,12.60
2022-09-25T03:09:32.414Z,9.85
2022-09-25T03:12:13.496Z,19.23
2022-09-25T03:14:40.683Z,20.92
2022-09-25T03:17:10.269Z,15.40
2022-09-25T03:19:45.407Z,13.02
2022-09-25T03:22:12.608Z,8.88
2022-09-25T03:24:46.616Z,7.07
2022-09-25T03:27:21.790Z,8.27
2022-09-25T03:29:56.640Z,7.93
2022-09-25T03:32:23.869Z,9.55
2022-09-25T03:34:50.960Z,9.32
2022-09-25T03:37:24.461Z,6.65
2022-09-25T03:39:51.729Z,7.80
2022-09-25T03:42:26.507Z,7.53
2022-09-25T03:44:53.718Z,7.82
2022-09-25T03:47:20.858Z,7.72
2022-09-25T03:49:54.401Z,8.80
2022-09-25T03:52:22.039Z,7.72
2022-09-25T03:57:30.988Z,10.23
2022-09-25T04:00:10.689Z,10.15
2022-09-25T04:02:37.920Z,10.88
2022-09-25T04:05:05.262Z,11.10
2022-09-25T04:07:39.459Z,13.68
2022-09-25T04:10:34.346Z,14.90
2022-09-25T04:13:08.563Z,17.48
2022-09-25T04:15:35.836Z,15.95
2022-09-25T04:18:06.155Z,21.15
2022-09-25T04:20:40.418Z,26.52
2022-09-25T04:23:07.641Z,27.80
2022-09-25T04:25:41.561Z,16.40
2022-09-25T04:28:10.165Z,16.55
2022-09-25T04:30:37.339Z,10.45
2022-09-25T04:33:29.526Z,9.10
2022-09-25T04:35:56.876Z,17.50
2022-09-25T04:38:30.668Z,17.50
2022-09-25T04:40:57.945Z,35.22
2022-09-25T04:43:25.064Z,47.22
2022-09-25T04:45:58.613Z,54.05
2022-09-25T04:48:25.815Z,49.95
2022-09-25T04:50:59.532Z,38.88
2022-09-25T04:53:27.294Z,33.42
2022-09-25T04:56:01.602Z,57.25
2022-09-25T04:58:29.043Z,37.30
2022-09-25T05:00:56.316Z,46.80
2022-09-25T05:03:30.533Z,39.50
2022-09-25T05:05:59.676Z,27.95
2022-09-25T05:08:34.679Z,31.55
2022-09-25T05:11:08.433Z,22.23
2022-09-25T05:13:42.557Z,20.95
2022-09-25T05:16:09.895Z,46.10
2022-09-25T05:18:37.038Z,36.15
2022-09-25T05:21:13.504Z,40.08
2022-09-25T05:23:40.770Z,38.85
2022-09-25T05:26:07.898Z,44.28
2022-09-25T05:28:41.552Z,40.53
2022-09-25T05:31:08.832Z,31.48
2022-09-25T05:33:42.448Z,34.40
2022-09-25T05:36:10.234Z,48.47
2022-09-25T05:38:45.474Z,44.65
2022-09-25T05:41:12.921Z,52.63
2022-09-25T05:43:50.540Z,54.47
2022-09-25T05:46:17.770Z,53.58
2022-09-25T05:48:44.930Z,33.03
2022-09-25T05:51:18.722Z,39.60
2022-09-25T05:53:47.563Z,59.70
2022-09-25T05:56:16.431Z,37.00
2022-09-25T05:58:50.488Z,41.50
2022-09-25T06:01:17.695Z,41.22
2022-09-25T06:03:51.577Z,43.28
2022-09-25T06:06:21.390Z,31.90
2022-09-25T06:09:04.658Z,48.25
2022-09-25T06:11:40.724Z,44.00
2022-09-25T06:14:14.622Z,45.70
2022-09-25T06:16:41.870Z,36.40
2022-09-25T06:19:09.053Z,37.40
2022-09-25T06:21:42.512Z,41.22
2022-09-25T06:24:10.779Z,34.78
2022-09-25T06:26:44.688Z,44.50
2022-09-25T06:29:11.865Z,36.15
2022-09-25T06:31:39.258Z,30.17
2022-09-25T06:34:13.570Z,34.10
2022-09-25T06:36:40.911Z,35.80
2022-09-25T06:39:15.636Z,34.45
2022-09-25T06:41:42.899Z,34.65
2022-09-25T06:44:10.133Z,38.78
2022-09-25T06:46:44.613Z,32.70
2022-09-25T06:49:13.429Z,28.40
2022-09-25T06:51:47.705Z,40.50
2022-09-25T06:54:14.946Z,41.83
2022-09-25T06:56:42.084Z,36.92
2022-09-25T06:59:16.666Z,39.47
2022-09-25T07:01:50.569Z,42.28
2022-09-25T07:04:18.686Z,39.80
2022-09-25T07:06:45.909Z,36.55
2022-09-25T07:09:19.505Z,30.73
2022-09-25T07:11:48.657Z,30.63
2022-09-25T07:14:22.854Z,31.60
2022-09-25T07:16:50.100Z,27.90
2022-09-25T07:19:17.271Z,30.95
2022-09-25T07:21:51.639Z,34.13
2022-09-25T07:24:18.808Z,30.45
2022-09-25T07:26:46.205Z,31.75
2022-09-25T07:29:19.507Z,37.85
2022-09-25T07:31:53.394Z,38.70
2022-09-25T07:34:20.705Z,40.58
2022-09-25T07:36:54.566Z,47.85
2022-09-25T07:39:21.873Z,43.47
2022-09-25T07:41:49.053Z,41.47
2022-09-25T07:44:29.223Z,42.58
2022-09-25T07:46:57.514Z,41.15
2022-09-25T07:49:31.681Z,37.78
2022-09-25T07:51:59.610Z,44.50
2022-09-25T07:54:26.718Z,41.00
2022-09-25T07:57:00.581Z,39.90
2022-09-25T07:59:27.831Z,47.67
2022-09-25T08:01:55.067Z,44.85
2022-09-25T08:04:28.507Z,47.25
2022-09-25T08:06:55.772Z,44.30
2022-09-25T08:09:29.699Z,36.70
2022-09-25T08:12:03.548Z,41.78
2022-09-25T08:14:37.696Z,39.33
2022-09-25T08:17:04.951Z,36.88
2022-09-25T08:19:33.208Z,34.60
2022-09-25T08:22:06.519Z,32.88
2022-09-25T08:24:33.792Z,31.30
2022-09-25T08:27:07.761Z,29.20
2022-09-25T08:29:35.063Z,29.60
2022-09-25T08:32:02.440Z,29.90
2022-09-25T08:34:41.056Z,32.47
2022-09-25T08:37:09.322Z,29.23
2022-09-25T08:39:42.515Z,26.20
2022-09-25T08:42:32.204Z,29.40
2022-09-25T08:45:26.708Z,27.55
2022-09-25T08:48:14.560Z,29.20
2022-09-25T08:50:48.534Z,26.10
2022-09-25T08:56:19.539Z,28.48
2022-09-25T08:58:48.625Z,27.77
2022-09-25T09:01:32.654Z,25.65
2022-09-25T09:04:11.158Z,22.95
2022-09-25T09:06:53.103Z,25.52
2022-09-25T09:09:48.494Z,25.45
2022-09-25T09:12:24.861Z,25.08
2022-09-25T09:14:55.983Z,24.98
2022-09-25T09:17:31.548Z,25.83
2022-09-25T09:20:00.757Z,24.77
2022-09-25T09:22:38.520Z,24.80
2022-09-25T09:25:05.718Z,22.52
2022-09-25T09:27:39.533Z,24.73
2022-09-25T09:30:09.905Z,22.00
2022-09-25T09:32:46.776Z,21.38
2022-09-25T09:35:20.671Z,21.50
2022-09-25T09:38:06.559Z,22.50
2022-09-25T09:40:52.502Z,21.50
2022-09-25T09:43:53.593Z,21.38
2022-09-25T09:46:50.127Z,18.52
2022-09-25T09:49:37.586Z,15.77
2022-09-25T09:52:10.308Z,12.57
2022-09-25T09:54:49.684Z,12.65
2022-09-25T09:57:22.587Z,12.70
2022-09-25T10:00:04.683Z,11.93
2022-09-25T10:02:44.119Z,10.38
2022-09-25T10:05:44.661Z,12.05
2022-09-25T10:08:11.948Z,12.10
2022-09-25T10:10:54.697Z,10.85
2022-09-25T10:13:34.367Z,10.52
2022-09-25T10:16:12.599Z,7.32
2022-09-25T10:21:19.552Z,7.75
2022-09-25T10:23:51.075Z,7.07
2022-09-25T10:26:30.562Z,7.47
2022-09-25T10:28:58.991Z,5.78
2022-09-25T10:31:35.554Z,5.53
2022-09-25T10:34:07.152Z,6.05
2022-09-25T10:36:46.719Z,6.65
2022-09-25T10:39:46.270Z,7.15
2022-09-25T10:42:39.867Z,6.93
2022-09-25T10:45:25.860Z,6.47
2022-09-25T10:48:18.748Z,5.78
2022-09-25T10:50:46.164Z,6.05
2022-09-25T10:53:37.560Z,6.18
2022-09-25T10:56:08.519Z,6.47
2022-09-25T10:58:45.715Z,4.85
2022-09-25T11:01:16.974Z,5.18
2022-09-25T11:03:58.750Z,4.75
2022-09-25T11:06:27.502Z,5.53
2022-09-25T11:09:20.742Z,4.90
2022-09-25T11:12:04.749Z,5.30
2022-09-25T11:14:39.681Z,4.90
2022-09-25T11:17:06.966Z,5.50
2022-09-25T11:19:44.632Z,6.35
2022-09-25T11:22:19.428Z,5.45
2022-09-25T11:24:57.300Z,5.88
2022-09-25T11:27:40.817Z,5.85
2022-09-25T11:30:18.734Z,4.75
2022-09-25T11:32:52.662Z,4.68
2022-09-25T11:35:33.766Z,4.90
2022-09-25T11:38:15.894Z,5.72
2022-09-25T11:41:23.616Z,5.55
2022-09-25T11:44:01.532Z,3.08
2022-09-25T11:46:31.780Z,1.85
2022-09-25T11:49:18.910Z,1.98
2022-09-25T11:51:49.261Z,1.50
2022-09-25T11:54:34.264Z,1.60
2022-09-25T11:57:10.544Z,1.90
2022-09-25T11:59:59.531Z,1.38
2022-09-25T12:02:45.455Z,1.70
2022-09-25T12:05:38.511Z,1.63
2022-09-25T12:08:10.654Z,1.95
2022-09-25T12:10:54.507Z,1.80
2022-09-25T12:13:28.634Z,1.90
2022-09-25T12:16:18.579Z,1.60
2022-09-25T12:18:56.216Z,1.60
2022-09-25T12:21:41.523Z,2.15
2022-09-25T12:24:15.229Z,2.10
2022-09-25T12:26:59.520Z,1.60
2022-09-25T12:29:52.775Z,1.73
2022-09-25T12:32:34.531Z,1.77
2022-09-25T12:35:01.806Z,2.00
2022-09-25T12:37:37.827Z,1.48
2022-09-25T12:40:14.787Z,1.85
2022-09-25T12:42:58.542Z,1.77
2022-09-25T12:45:34.184Z,1.83
2022-09-25T12:48:20.700Z,1.85
2022-09-25T12:50:47.933Z,2.00
2022-09-25T12:53:53.544Z,1.80
2022-09-25T12:56:24.353Z,2.33
2022-09-25T12:59:03.547Z,1.83
2022-09-25T13:01:35.163Z,1.80
2022-09-25T13:04:30.538Z,2.00
2022-09-25T13:07:06.044Z,1.80
2022-09-25T13:09:42.663Z,1.73
2022-09-25T13:12:36.798Z,1.63
2022-09-25T13:15:16.556Z,1.88
2022-09-25T13:17:43.969Z,1.50
2022-09-25T13:20:36.685Z,1.55
2022-09-25T13:23:06.235Z,2.08
2022-09-25T13:25:48.715Z,1.70
2022-09-25T13:28:20.028Z,1.70
2022-09-25T13:31:13.637Z,1.40
2022-09-25T13:33:52.655Z,2.00
2022-09-25T13:36:23.561Z,1.77
2022-09-25T13:39:21.624Z,1.88
2022-09-25T13:41:49.297Z,2.03
2022-09-25T13:44:41.646Z,2.15
2022-09-25T13:47:27.254Z,1.90
2022-09-25T13:50:18.699Z,1.88
2022-09-25T13:52:48.891Z,2.10
2022-09-25T13:55:31.900Z,2.17
2022-09-25T13:57:59.327Z,2.13
2022-09-25T14:00:27.250Z,2.28
2022-09-25T14:03:08.642Z,1.90
2022-09-25T14:05:37.117Z,2.13
2022-09-25T14:08:19.931Z,2.08
2022-09-25T14:11:08.566Z,2.08
2022-09-25T14:13:42.769Z,2.22
2022-09-25T14:16:13.679Z,1.90
2022-09-25T14:18:54.812Z,1.80
2022-09-25T14:21:22.878Z,1.90
2022-09-25T14:23:57.722Z,2.05
2022-09-25T14:26:26.066Z,1.58
2022-09-25T14:29:01.196Z,1.70
2022-09-25T14:31:37.532Z,1.60
2022-09-25T14:34:32.702Z,1.92
2022-09-25T14:37:25.506Z,1.55
2022-09-25T14:40:01.693Z,1.58
2022-09-25T14:42:29.100Z,1.90
2022-09-25T14:45:08.800Z,1.48
2022-09-25T14:47:37.457Z,1.40
2022-09-25T14:50:04.967Z,1.77
2022-09-25T14:55:07.782Z,1.35
2022-09-25T14:57:48.792Z,1.70
2022-09-25T15:00:24.693Z,1.52
2022-09-25T15:03:00.932Z,1.15
2022-09-25T15:05:28.223Z,1.60
2022-09-25T15:08:05.830Z,1.63
2022-09-25T15:10:53.576Z,2.28
2022-09-25T15:13:27.798Z,1.35
2022-09-25T15:16:16.310Z,2.00
2022-09-25T15:18:51.691Z,1.75
2022-09-25T15:21:30.289Z,1.50
2022-09-25T15:24:10.764Z,1.70
2022-09-25T15:26:41.854Z,1.65
2022-09-25T15:29:27.753Z,1.65
2022-09-25T15:31:54.933Z,1.42
2022-09-25T15:34:32.918Z,1.48
2022-09-25T15:37:22.313Z,1.63
2022-09-25T15:39:55.694Z,1.60
2022-09-25T15:42:23.298Z,1.33
2022-09-25T15:47:49.116Z,1.83
2022-09-25T15:50:28.680Z,1.92
2022-09-25T15:53:00.375Z,2.00
2022-09-25T15:55:37.677Z,1.85
2022-09-25T15:58:07.598Z,2.20
2022-09-25T16:00:59.755Z,1.65
2022-09-25T16:03:46.552Z,2.13
2022-09-25T16:06:21.805Z,1.90
2022-09-25T16:08:49.078Z,2.22
2022-09-25T16:11:30.774Z,2.00
2022-09-25T16:14:24.683Z,2.20
2022-09-25T16:16:58.776Z,2.00
2022-09-25T16:19:25.985Z,2.10
2022-09-25T16:22:00.758Z,2.00
2022-09-25T16:24:29.186Z,2.25
2022-09-25T16:27:09.804Z,1.98
2022-09-25T16:29:40.703Z,2.10
2022-09-25T16:32:15.910Z,2.13
2022-09-25T16:34:49.066Z,2.10
2022-09-25T16:37:27.686Z,2.22
2022-09-25T16:40:13.540Z,2.30
2022-09-25T16:42:47.778Z,1.95
2022-09-25T16:45:20.986Z,2.30
2022-09-25T16:47:54.858Z,2.20
2022-09-25T16:50:23.033Z,2.33
2022-09-25T16:52:50.227Z,2.28
2022-09-25T16:55:29.801Z,3.00
2022-09-25T16:57:58.480Z,2.78
2022-09-25T17:00:35.883Z,2.30
2022-09-25T17:03:03.243Z,1.95
2022-09-25T17:05:31.617Z,2.03
2022-09-25T17:08:07.866Z,2.55
2022-09-25T17:10:36.140Z,2.58
2022-09-25T17:13:17.902Z,2.25
2022-09-25T17:15:45.291Z,3.35
2022-09-25T17:18:28.830Z,2.80
2022-09-25T17:20:57.307Z,2.80
2022-09-25T17:23:25.690Z,3.03
2022-09-25T17:26:23.072Z,3.13
2022-09-25T17:28:51.236Z,3.13
2022-09-25T17:31:20.171Z,4.85
2022-09-25T17:33:57.353Z,4.13
2022-09-25T17:36:24.675Z,4.95
2022-09-25T17:38:51.789Z,4.97
2022-09-25T17:41:32.903Z,4.68
2022-09-25T17:44:00.113Z,5.20
2022-09-25T17:46:27.454Z,5.65
2022-09-25T17:49:01.968Z,5.30
2022-09-25T17:51:29.893Z,5.97
2022-09-25T17:53:57.731Z,5.80
2022-09-25T17:56:31.814Z,5.80
2022-09-25T17:58:59.087Z,6.35
2022-09-25T18:01:39.229Z,6.85
2022-09-25T18:04:21.060Z,6.32
2022-09-25T18:06:54.823Z,6.65
2022-09-25T18:09:22.183Z,6.90
2022-09-25T18:12:02.840Z,7.88
2022-09-25T18:14:30.135Z,8.07
2022-09-25T18:16:57.215Z,7.55
2022-09-25T18:19:49.801Z,6.07
2022-09-25T18:22:17.616Z,7.32
2022-09-25T18:24:51.794Z,6.68
2022-09-25T18:27:19.304Z,6.78
2022-09-25T18:29:53.861Z,6.80
2022-09-25T18:32:21.291Z,7.95
2022-09-25T18:34:48.408Z,7.03
2022-09-25T18:37:21.959Z,7.28
2022-09-25T18:39:49.743Z,7.88
2022-09-25T18:42:23.962Z,8.07
2022-09-25T18:44:51.198Z,9.43
2022-09-25T18:47:18.307Z,7.78
2022-09-25T18:49:51.768Z,7.57
2022-09-25T18:52:19.320Z,9.20
2022-09-25T18:57:20.259Z,8.88
2022-09-25T18:59:47.527Z,8.30
2022-09-25T19:02:28.923Z,8.90
2022-09-25T19:04:56.613Z,8.43
2022-09-25T19:09:58.116Z,8.13
2022-09-25T19:12:31.787Z,9.00
2022-09-25T19:15:05.791Z,8.65
2022-09-25T19:17:33.130Z,9.82
2022-09-25T19:20:00.305Z,9.77
2022-09-25T19:22:33.772Z,9.15
2022-09-25T19:25:01.028Z,9.38
2022-09-25T19:27:35.848Z,8.95
2022-09-25T19:30:03.068Z,9.23
2022-09-25T19:32:30.219Z,9.65
2022-09-25T19:35:04.011Z,9.55
2022-09-25T19:37:32.858Z,9.02
2022-09-25T19:40:26.033Z,8.98
2022-09-25T19:42:53.404Z,8.98
2022-09-25T19:45:21.175Z,8.38
2022-09-25T19:47:54.790Z,8.88
2022-09-25T19:50:22.096Z,8.52
2022-09-25T19:52:55.847Z,8.82
2022-09-25T19:55:23.861Z,7.93
2022-09-25T19:57:50.989Z,7.78
2022-09-25T20:00:24.771Z,7.88
2022-09-25T20:02:52.130Z,7.93
2022-09-25T20:05:25.935Z,7.45
2022-09-25T20:07:53.107Z,7.80
2022-09-25T20:10:20.810Z,7.70
2022-09-25T20:12:54.874Z,7.65
2022-09-25T20:15:28.849Z,7.97
2022-09-25T20:18:02.770Z,6.90
2022-09-25T20:20:30.157Z,6.72
2022-09-25T20:23:03.861Z,6.50
2022-09-25T20:25:31.140Z,7.18
2022-09-25T20:27:59.669Z,8.57
2022-09-25T20:30:35.931Z,8.07
2022-09-25T20:33:04.773Z,8.20
2022-09-25T20:35:38.845Z,8.05
2022-09-25T20:38:10.730Z,7.22
2022-09-25T20:40:45.881Z,7.57
2022-09-25T20:43:13.112Z,8.63
2022-09-25T20:45:40.281Z,9.05
2022-09-25T20:48:14.200Z,9.38
2022-09-25T20:50:49.192Z,8.68
2022-09-25T20:53:23.175Z,8.98
2022-09-25T20:55:51.395Z,9.10
2022-09-25T20:58:18.962Z,8.82
2022-09-25T21:03:20.295Z,7.40
2022-09-25T21:05:47.377Z,8.88
2022-09-25T21:08:21.903Z,7.70
2022-09-25T21:10:51.087Z,7.40
2022-09-25T21:13:33.884Z,8.35
2022-09-25T21:16:08.380Z,9.07
2022-09-25T21:18:42.856Z,9.30
2022-09-25T21:21:22.982Z,10.48
2022-09-25T21:23:51.737Z,8.52
2022-09-25T21:26:25.759Z,9.77
2022-09-25T21:28:54.003Z,9.93
2022-09-25T21:31:22.943Z,8.32
2022-09-25T21:34:03.907Z,10.27
2022-09-25T21:36:31.395Z,10.48
2022-09-25T21:39:05.894Z,9.57
2022-09-25T21:41:33.623Z,8.60
2022-09-25T21:46:35.179Z,7.53
2022-09-25T21:49:03.557Z,8.70
2022-09-25T21:51:49.835Z,9.02
2022-09-25T21:54:17.406Z,8.75
2022-09-25T21:59:18.310Z,9.63
2022-09-25T22:01:51.949Z,9.32
2022-09-25T22:04:19.207Z,8.65
2022-09-25T22:06:53.884Z,8.80
2022-09-25T22:09:22.317Z,8.65
2022-09-25T22:12:02.960Z,8.70
2022-09-25T22:14:36.706Z,8.27
2022-09-25T22:17:11.145Z,6.13
2022-09-25T22:19:38.418Z,7.22
2022-09-25T22:22:05.732Z,7.78
2022-09-25T22:24:39.875Z,7.22
2022-09-25T22:27:07.085Z,7.40
2022-09-25T22:29:43.833Z,7.20
2022-09-25T22:32:11.098Z,7.57
2022-09-25T22:34:38.246Z,5.90
2022-09-25T22:37:12.010Z,6.53
2022-09-25T22:39:39.213Z,5.80
2022-09-25T22:42:06.535Z,6.07
2022-09-25T22:44:39.851Z,6.18
2022-09-25T22:47:07.062Z,5.70
2022-09-25T22:49:41.106Z,5.55
2022-09-25T22:52:08.305Z,5.80
2022-09-25T22:54:35.407Z,5.32
2022-09-25T22:57:08.945Z,5.65
2022-09-25T22:59:36.127Z,4.57
2022-09-25T23:02:09.809Z,4.75
2022-09-25T23:04:36.917Z,4.53
2022-09-25T23:07:10.877Z,5.50
2022-09-25T23:09:38.413Z,5.18
2022-09-25T23:12:19.045Z,4.93
2022-09-25T23:14:53.989Z,5.18
2022-09-25T23:17:27.913Z,4.72
2022-09-25T23:19:55.004Z,4.65
2022-09-25T23:22:22.248Z,3.83
2022-09-25T23:24:55.912Z,3.90
2022-09-25T23:27:23.148Z,3.45
2022-09-25T23:29:56.981Z,4.20
2022-09-25T23:32:24.127Z,4.78
2022-09-25T23:34:51.255Z,4.28
2022-09-25T23:37:24.814Z,4.68
2022-09-25T23:39:52.065Z,6.13
2022-09-25T23:42:25.857Z,5.25
2022-09-25T23:44:53.081Z,5.03
2022-09-25T23:47:26.882Z,4.00
2022-09-25T23:49:54.034Z,4.57
2022-09-25T23:52:21.216Z,4.78
2022-09-25T23:54:54.918Z,4.57
2022-09-25T23:57:22.241Z,5.60
2022-09-25T23:59:56.121Z,5.07
